Time;durP1;ratioP1;P1;durP2;ratioP2;P2;SDS_P1;SDS_P2;PMS_P1;PMS_P2;Temp;Humidity;BMP_temperature;BMP_pressure;BME280_temperature;BME280_humidity;BME280_pressure;Samples;Min_cycle;Max_cycle;Signal;HPM_P1;HPM_P2
2024/03/26 00:00:16;;;;;;;1.97;0.97;;;;;;;6.97;100.00;101034.03;2086088;28;20307;-75
2024/03/26 00:01:16;;;;;;;1.47;1.00;;;;;;;7.11;100.00;101055.25;2092597;28;20189;-75
2024/03/26 00:02:17;;;;;;;1.47;0.93;;;;;;;6.62;100.00;100981.78;2088115;28;20243;-74
2024/03/26 00:03:18;;;;;;;1.40;0.90;;;;;;;7.10;100.00;101054.47;2089098;28;20195;-75
2024/03/26 00:04:18;;;;;;;1.03;0.77;;;;;;;6.69;100.00;100987.28;2084385;28;20468;-75
2024/03/26 00:05:18;;;;;;;1.70;0.90;;;;;;;7.11;100.00;101058.78;2085277;28;20203;-74
2024/03/26 00:06:19;;;;;;;2.20;0.60;;;;;;;7.10;100.00;101057.22;2091482;28;20196;-75
2024/03/26 00:07:19;;;;;;;1.43;0.80;;;;;;;6.03;100.00;100896.53;2086212;28;20272;-74
2024/03/26 00:08:20;;;;;;;1.10;0.80;;;;;;;6.86;100.00;101037.97;2092589;28;20241;-75
2024/03/26 00:09:20;;;;;;;1.10;0.87;;;;;;;6.78;100.00;101053.75;2087145;28;20185;-74
2024/03/26 00:10:21;;;;;;;0.90;0.70;;;;;;;6.32;100.00;100970.44;2088194;28;20186;-74
2024/03/26 00:11:24;;;;;;;1.67;0.70;;;;;;;6.84;100.00;101043.09;2085398;28;20197;-74
2024/03/26 00:12:24;;;;;;;2.33;0.98;;;;;;;6.53;100.00;100981.41;2085832;28;20188;-74
2024/03/26 00:13:25;;;;;;;2.97;0.83;;;;;;;7.01;100.00;101058.81;2085557;28;20214;-74
2024/03/26 00:14:25;;;;;;;1.13;0.70;;;;;;;7.05;100.00;101062.34;2087913;28;20184;-74
2024/03/26 00:15:26;;;;;;;1.60;0.90;;;;;;;6.98;100.00;101045.84;2084674;28;20689;-74
2024/03/26 00:16:26;;;;;;;2.03;0.90;;;;;;;7.00;100.00;101058.03;2083213;28;21686;-74
2024/03/26 00:17:27;;;;;;;2.90;1.00;;;;;;;6.90;100.00;101047.03;2090026;28;20190;-74
2024/03/26 00:18:27;;;;;;;2.10;0.97;;;;;;;6.99;100.00;101059.22;2090685;28;20191;-75
2024/03/26 00:19:29;;;;;;;1.97;1.00;;;;;;;6.21;100.00;100933.09;2089293;28;20190;-75
2024/03/26 00:20:29;;;;;;;2.50;0.75;;;;;;;6.48;100.00;100981.03;2087311;28;20181;-74
2024/03/26 00:21:30;;;;;;;0.93;0.80;;;;;;;7.04;100.00;101060.78;2084634;28;20758;-75
2024/03/26 00:22:30;;;;;;;1.57;0.90;;;;;;;6.92;100.00;101045.44;2085424;28;20635;-74
2024/03/26 00:23:31;;;;;;;0.80;0.70;;;;;;;6.60;100.00;101002.63;2085930;28;20270;-75
2024/03/26 00:24:31;;;;;;;3.03;1.07;;;;;;;7.04;100.00;101064.34;2085327;28;20189;-74
2024/03/26 00:25:32;;;;;;;1.87;0.80;;;;;;;5.87;100.00;100885.16;2085628;28;20272;-75
2024/03/26 00:26:34;;;;;;;1.57;0.87;;;;;;;5.60;100.00;100849.00;2087524;28;20195;-74
2024/03/26 00:27:34;;;;;;;1.75;0.90;;;;;;;6.98;100.00;101060.38;2086426;28;20192;-74
2024/03/26 00:28:35;;;;;;;1.70;1.00;;;;;;;7.00;100.00;101052.53;2085846;28;20196;-75
2024/03/26 00:29:35;;;;;;;4.30;0.80;;;;;;;6.80;100.00;101023.03;2088880;28;20192;-74
2024/03/26 00:30:36;;;;;;;1.30;0.90;;;;;;;7.09;100.00;101055.66;2091651;28;20176;-74
2024/03/26 00:31:36;;;;;;;2.90;0.80;;;;;;;7.08;100.00;101058.81;2085190;28;20184;-75
2024/03/26 00:32:37;;;;;;;1.47;0.77;;;;;;;7.06;100.00;101053.69;2093655;28;20207;-75
2024/03/26 00:33:37;;;;;;;8.90;1.10;;;;;;;6.67;100.00;100991.63;2086612;28;20228;-74
2024/03/26 00:34:38;;;;;;;1.53;0.97;;;;;;;6.73;100.00;101012.84;2084851;28;20188;-75
2024/03/26 00:35:38;;;;;;;1.73;0.87;;;;;;;6.91;100.00;101060.41;2086113;28;20237;-75
2024/03/26 00:36:39;;;;;;;2.70;0.73;;;;;;;6.85;100.00;101039.97;2090672;28;20176;-74
2024/03/26 00:37:39;;;;;;;1.20;0.80;;;;;;;6.97;100.00;101060.81;2085651;28;20185;-74
2024/03/26 00:38:40;;;;;;;1.33;1.10;;;;;;;6.74;100.00;101039.19;2087153;28;20193;-75
2024/03/26 00:39:40;;;;;;;4.80;1.07;;;;;;;6.77;100.00;101037.63;2085686;28;20311;-74
2024/03/26 00:40:41;;;;;;;1.23;0.90;;;;;;;6.96;100.00;101057.25;2085009;28;20192;-75
2024/03/26 00:41:42;;;;;;;2.03;1.03;;;;;;;6.64;100.00;101006.97;2085087;28;20309;-74
2024/03/26 00:42:42;;;;;;;7.40;1.40;;;;;;;6.29;100.00;100957.47;2085225;28;20186;-74
2024/03/26 00:43:43;;;;;;;3.00;0.90;;;;;;;6.98;100.00;101059.63;2088066;28;20223;-74
2024/03/26 00:44:43;;;;;;;1.83;1.17;;;;;;;6.92;100.00;101056.47;2088165;28;20192;-75
2024/03/26 00:45:44;;;;;;;1.63;1.00;;;;;;;6.89;100.00;101062.00;2092384;28;20191;-75
2024/03/26 00:46:45;;;;;;;0.75;0.60;;;;;;;6.56;100.00;101013.66;2090484;28;20275;-75
2024/03/26 00:47:45;;;;;;;1.03;0.90;;;;;;;6.85;100.00;101058.44;2088824;28;20201;-74
2024/03/26 00:48:46;;;;;;;1.33;0.90;;;;;;;6.73;100.00;101050.63;2092075;28;20184;-74
2024/03/26 00:49:46;;;;;;;3.50;1.20;;;;;;;6.84;100.00;101057.69;2088481;28;20213;-75
2024/03/26 00:50:47;;;;;;;1.73;0.90;;;;;;;6.81;100.00;101046.69;2087755;28;20192;-75
2024/03/26 00:51:47;;;;;;;1.37;1.00;;;;;;;6.62;100.00;101016.78;2086994;28;20187;-75
2024/03/26 00:52:48;;;;;;;1.77;1.00;;;;;;;6.78;100.00;101052.97;2087257;28;20197;-75
2024/03/26 00:53:48;;;;;;;1.20;0.77;;;;;;;6.85;100.00;101052.94;2087536;28;20197;-74
2024/03/26 00:54:49;;;;;;;1.17;0.70;;;;;;;6.65;100.00;101024.25;2087475;28;20177;-74
2024/03/26 00:55:49;;;;;;;1.60;1.00;;;;;;;6.41;100.00;100981.81;2089544;28;20185;-75
2024/03/26 00:56:50;;;;;;;8.03;1.07;;;;;;;6.78;100.00;101042.75;2087374;28;20224;-75
2024/03/26 00:57:51;;;;;;;1.40;1.00;;;;;;;6.75;100.00;101040.78;2086854;28;20198;-74
2024/03/26 00:58:51;;;;;;;2.55;1.00;;;;;;;6.89;100.00;101054.53;2090266;28;20216;-75
2024/03/26 00:59:52;;;;;;;1.07;0.70;;;;;;;6.32;100.00;100969.63;2087485;28;20204;-74
2024/03/26 01:00:53;;;;;;;0.97;0.80;;;;;;;6.83;100.00;101056.09;2086388;28;20192;-74
2024/03/26 01:01:55;;;;;;;0.90;0.73;;;;;;;5.94;100.00;100923.69;2089591;28;20176;-75
2024/03/26 01:02:56;;;;;;;1.55;1.08;;;;;;;6.89;100.00;101068.31;2088598;28;20188;-74
2024/03/26 01:03:56;;;;;;;2.37;1.13;;;;;;;6.85;100.00;101059.25;2088421;28;20704;-75
2024/03/26 01:04:57;;;;;;;1.40;0.90;;;;;;;6.95;100.00;101072.22;2089124;28;20196;-75
2024/03/26 01:05:57;;;;;;;2.70;0.83;;;;;;;6.99;100.00;101066.69;2092548;28;20666;-75
2024/03/26 01:06:58;;;;;;;2.00;0.70;;;;;;;6.93;100.00;101052.53;2086829;28;20289;-74
2024/03/26 01:07:58;;;;;;;1.20;0.80;;;;;;;6.27;100.00;100954.31;2089673;28;20549;-75
2024/03/26 01:08:58;;;;;;;0.70;0.70;;;;;;;6.96;100.00;101050.94;2093101;28;20624;-74
2024/03/26 01:10:00;;;;;;;1.10;0.90;;;;;;;6.97;100.00;101063.56;2089566;28;20195;-75
2024/03/26 01:11:00;;;;;;;2.88;1.00;;;;;;;7.06;100.00;101072.19;2086806;28;20200;-74
2024/03/26 01:12:01;;;;;;;3.33;0.90;;;;;;;6.99;100.00;101058.44;2088450;28;20204;-74
2024/03/26 01:13:01;;;;;;;4.70;0.90;;;;;;;6.79;100.00;101029.75;2093445;28;20196;-75
2024/03/26 01:14:02;;;;;;;1.63;0.77;;;;;;;6.87;100.00;101036.81;2093790;28;20242;-75
2024/03/26 01:15:03;;;;;;;1.50;0.73;;;;;;;6.46;100.00;100973.16;2086872;28;20209;-74
2024/03/26 01:16:04;;;;;;;4.50;1.13;;;;;;;6.61;100.00;100996.72;2087472;28;20200;-75
2024/03/26 01:17:05;;;;;;;1.33;0.70;;;;;;;7.06;100.00;101061.94;2087287;28;20715;-74
2024/03/26 01:18:05;;;;;;;1.47;1.07;;;;;;;6.95;100.00;101044.66;2087446;28;20639;-75
2024/03/26 01:19:06;;;;;;;1.23;0.80;;;;;;;6.93;100.00;101032.47;2093538;28;20601;-75
2024/03/26 01:20:07;;;;;;;1.37;0.90;;;;;;;7.09;100.00;101058.41;2089143;28;20607;-74
2024/03/26 01:21:08;;;;;;;2.92;0.80;;;;;;;7.09;100.00;101058.41;2093791;28;20686;-74
2024/03/26 01:22:08;;;;;;;2.37;0.80;;;;;;;7.09;100.00;101058.41;2088843;28;20570;-75
2024/03/26 01:23:09;;;;;;;1.50;0.80;;;;;;;7.05;100.00;101059.59;2089084;28;20190;-74
2024/03/26 01:24:09;;;;;;;1.00;0.90;;;;;;;7.05;100.00;101060.38;2086650;28;20205;-75
2024/03/26 01:25:10;;;;;;;3.57;1.30;;;;;;;6.55;100.00;100979.03;2092453;28;20200;-74
2024/03/26 01:26:10;;;;;;;3.93;1.07;;;;;;;7.01;100.00;101054.09;2092958;28;20191;-74
2024/03/26 01:27:11;;;;;;;1.80;1.07;;;;;;;6.97;100.00;101056.06;2087538;28;20253;-74
2024/03/26 01:28:11;;;;;;;1.57;1.00;;;;;;;6.85;100.00;101050.19;2087390;28;20195;-74
2024/03/26 01:29:12;;;;;;;1.63;0.90;;;;;;;6.40;100.00;100987.72;2087330;28;20196;-75
2024/03/26 01:30:12;;;;;;;2.10;0.80;;;;;;;6.90;100.00;101050.59;2089612;28;20291;-74
2024/03/26 01:31:13;;;;;;;2.20;1.00;;;;;;;6.93;100.00;101057.28;2086446;28;20186;-75
2024/03/26 01:32:13;;;;;;;3.40;1.00;;;;;;;6.97;100.00;101050.56;2094861;28;20175;-74
2024/03/26 01:33:14;;;;;;;1.80;1.17;;;;;;;6.43;100.00;100970.41;2087684;28;20296;-74
2024/03/26 01:34:18;;;;;;;2.77;1.20;;;;;;;6.58;100.00;100980.22;2087109;28;20200;-74
2024/03/26 01:35:18;;;;;;;1.92;1.08;;;;;;;7.00;100.00;101052.53;2090290;28;20276;-75
2024/03/26 01:36:19;;;;;;;2.23;0.90;;;;;;;6.49;100.00;100974.31;2087331;28;20713;-75
2024/03/26 01:37:19;;;;;;;2.00;0.90;;;;;;;6.92;100.00;101050.19;2086248;28;20263;-74
2024/03/26 01:38:20;;;;;;;4.50;1.23;;;;;;;6.87;100.00;101051.38;2097461;28;20690;-75
2024/03/26 01:39:21;;;;;;;1.60;0.97;;;;;;;6.77;100.00;101038.41;2087742;28;20213;-74
2024/03/26 01:40:23;;;;;;;1.70;1.03;;;;;;;6.85;100.00;101047.44;2088575;28;20197;-74
2024/03/26 01:41:24;;;;;;;4.18;1.10;;;;;;;6.78;100.00;101053.75;2086639;28;20193;-75
2024/03/26 01:42:24;;;;;;;4.17;1.10;;;;;;;6.73;100.00;101051.41;2086628;28;20196;-75
2024/03/26 01:43:25;;;;;;;1.93;1.00;;;;;;;6.72;100.00;101047.06;2086738;28;20172;-74
2024/03/26 01:44:25;;;;;;;3.33;1.67;;;;;;;6.71;100.00;101048.25;2089831;28;20188;-74
2024/03/26 01:45:27;;;;;;;1.60;1.07;;;;;;;6.74;100.00;101049.44;2089670;28;20580;-75
2024/03/26 01:46:28;;;;;;;10.45;2.03;;;;;;;6.60;100.00;101025.44;2088831;28;20663;-75
2024/03/26 01:47:30;;;;;;;1.95;1.13;;;;;;;6.72;100.00;101049.81;2085622;28;20192;-74
2024/03/26 01:48:31;;;;;;;1.85;1.17;;;;;;;5.95;100.00;100936.25;2086495;28;20208;-74
2024/03/26 01:49:34;;;;;;;2.00;1.00;;;;;;;6.26;100.00;100969.25;2086661;28;20192;-75
2024/03/26 01:50:35;;;;;;;2.67;1.10;;;;;;;6.27;100.00;100970.84;2090371;28;20190;-75
2024/03/26 01:51:39;;;;;;;4.27;1.60;;;;;;;6.79;100.00;101041.56;2089001;28;20180;-75
2024/03/26 01:52:40;;;;;;;2.67;1.45;;;;;;;6.10;100.00;100952.34;2086154;28;20215;-75
2024/03/26 01:53:41;;;;;;;1.97;1.43;;;;;;;6.80;100.00;101048.63;2086203;28;20196;-74
2024/03/26 01:54:43;;;;;;;4.17;1.40;;;;;;;6.82;100.00;101048.25;2086720;28;20196;-75
2024/03/26 01:55:44;;;;;;;1.60;1.08;;;;;;;6.84;100.00;101045.88;2087508;28;20199;-75
2024/03/26 01:56:46;;;;;;;2.37;1.33;;;;;;;6.83;100.00;101047.81;2086696;28;20187;-74
2024/03/26 01:57:47;;;;;;;5.85;1.50;;;;;;;6.59;100.00;101012.06;2092067;28;21406;-75
2024/03/26 01:58:49;;;;;;;2.70;1.48;;;;;;;6.81;100.00;101052.97;2089963;28;20643;-74
2024/03/26 01:59:52;;;;;;;2.08;1.40;;;;;;;6.86;100.00;101057.25;2087914;28;20188;-75
2024/03/26 02:00:54;;;;;;;2.95;1.70;;;;;;;6.66;100.00;101029.38;2086755;28;20401;-75
2024/03/26 02:01:55;;;;;;;3.45;1.60;;;;;;;6.88;100.00;101050.19;2085908;28;20192;-75
2024/03/26 02:02:56;;;;;;;3.13;1.30;;;;;;;6.91;100.00;101057.66;2086718;28;20184;-75
2024/03/26 02:03:56;;;;;;;3.75;1.20;;;;;;;6.19;100.00;100949.19;2093795;28;20222;-75
2024/03/26 02:04:57;;;;;;;2.53;1.30;;;;;;;6.92;100.00;101058.47;2087991;28;20187;-75
2024/03/26 02:05:57;;;;;;;2.93;1.00;;;;;;;6.83;100.00;101053.34;2086759;28;20313;-74
2024/03/26 02:06:58;;;;;;;2.17;1.30;;;;;;;6.66;100.00;101026.63;2086795;28;20196;-74
2024/03/26 02:07:58;;;;;;;5.63;1.83;;;;;;;6.93;100.00;101060.78;2087049;28;20685;-75
2024/03/26 02:09:02;;;;;;;3.00;1.60;;;;;;;6.20;100.00;100951.56;2087154;28;20224;-74
2024/03/26 02:10:03;;;;;;;2.15;1.60;;;;;;;6.90;100.00;101058.84;2089539;28;20187;-75
2024/03/26 02:11:04;;;;;;;2.47;1.30;;;;;;;6.91;100.00;101060.41;2096517;28;20188;-74
2024/03/26 02:12:05;;;;;;;3.35;1.58;;;;;;;6.94;100.00;101064.34;2087741;28;20251;-75
2024/03/26 02:13:05;;;;;;;5.60;1.53;;;;;;;6.95;100.00;101063.94;2088565;28;20727;-75
2024/03/26 02:14:06;;;;;;;3.93;1.40;;;;;;;6.95;100.00;101065.91;2086670;28;20671;-74
2024/03/26 02:15:07;;;;;;;2.77;1.80;;;;;;;6.71;100.00;101031.72;2085884;28;20645;-74
2024/03/26 02:16:08;;;;;;;2.85;1.80;;;;;;;6.96;100.00;101073.78;2086872;28;20180;-75
2024/03/26 02:17:08;;;;;;;2.77;1.60;;;;;;;6.24;100.00;100970.81;2088967;28;20645;-74
2024/03/26 02:18:08;;;;;;;4.77;1.80;;;;;;;6.78;100.00;101037.25;2085729;28;20185;-75
2024/03/26 02:19:09;;;;;;;2.53;1.63;;;;;;;6.82;100.00;101048.25;2091851;28;20627;-75
2024/03/26 02:20:12;;;;;;;2.97;1.70;;;;;;;6.93;100.00;101065.53;2091031;28;20537;-74
2024/03/26 02:21:12;;;;;;;3.13;1.67;;;;;;;6.85;100.00;101052.94;2085554;28;20205;-74
2024/03/26 02:22:13;;;;;;;2.30;1.40;;;;;;;6.79;100.00;101058.09;2086670;28;20267;-74
2024/03/26 02:23:19;;;;;;;2.30;1.40;;;;;;;6.70;100.00;101035.66;2090079;28;20186;-74
2024/03/26 02:24:19;;;;;;;2.83;1.42;;;;;;;6.87;100.00;101056.88;2088451;28;20536;-74
2024/03/26 02:25:20;;;;;;;2.03;1.30;;;;;;;6.77;100.00;101060.44;2088132;28;20280;-74
2024/03/26 02:26:20;;;;;;;2.20;1.33;;;;;;;6.70;100.00;101023.84;2089821;28;20711;-74
2024/03/26 02:27:21;;;;;;;3.57;1.53;;;;;;;6.94;100.00;101062.38;2086607;28;20200;-74
2024/03/26 02:28:21;;;;;;;8.90;1.80;;;;;;;6.90;100.00;101047.81;2086037;28;20215;-75
2024/03/26 02:29:22;;;;;;;2.43;1.53;;;;;;;6.92;100.00;101059.22;2095568;28;20176;-75
2024/03/26 02:30:22;;;;;;;2.77;1.67;;;;;;;6.49;100.00;100979.84;2087218;28;20189;-74
2024/03/26 02:31:23;;;;;;;4.17;1.27;;;;;;;6.34;100.00;100965.31;2085994;28;20252;-74
2024/03/26 02:32:23;;;;;;;4.07;1.80;;;;;;;6.98;100.00;101060.38;2086888;28;20196;-74
2024/03/26 02:33:24;;;;;;;5.20;1.80;;;;;;;6.57;100.00;100998.69;2086563;28;20231;-75
2024/03/26 02:34:24;;;;;;;3.07;1.40;;;;;;;6.97;100.00;101061.56;2090219;28;20661;-75
2024/03/26 02:35:25;;;;;;;2.73;1.73;;;;;;;6.85;100.00;101055.69;2088722;28;20538;-74
2024/03/26 02:36:25;;;;;;;2.60;1.53;;;;;;;6.97;100.00;101058.81;2086452;28;20258;-75
2024/03/26 02:37:26;;;;;;;2.60;1.70;;;;;;;6.99;100.00;101063.94;2089161;28;20668;-75
2024/03/26 02:38:26;;;;;;;3.67;1.57;;;;;;;6.99;100.00;101067.50;2090255;28;20208;-75
2024/03/26 02:39:27;;;;;;;3.90;1.63;;;;;;;6.87;100.00;101045.09;2086446;28;20346;-74
2024/03/26 02:40:28;;;;;;;2.83;1.50;;;;;;;6.99;100.00;101069.44;2086409;28;20194;-75
2024/03/26 02:41:28;;;;;;;2.47;1.20;;;;;;;6.66;100.00;101025.84;2088191;28;20264;-74
2024/03/26 02:42:29;;;;;;;1.97;1.10;;;;;;;6.87;100.00;101045.84;2086434;28;20188;-74
2024/03/26 02:43:31;;;;;;;2.60;1.70;;;;;;;6.97;100.00;101063.56;2086510;28;20192;-74
2024/03/26 02:44:32;;;;;;;2.53;1.70;;;;;;;6.54;100.00;100998.69;2086380;28;20192;-74
2024/03/26 02:45:32;;;;;;;2.33;1.20;;;;;;;6.81;100.00;101052.97;2087697;28;20207;-74
2024/03/26 02:46:33;;;;;;;4.57;1.80;;;;;;;6.87;100.00;101065.13;2085962;28;20235;-74
2024/03/26 02:47:33;;;;;;;5.37;1.63;;;;;;;6.69;100.00;101036.06;2096279;28;20179;-74
2024/03/26 02:48:34;;;;;;;3.90;1.63;;;;;;;6.71;100.00;101042.75;2086853;28;20199;-75
2024/03/26 02:49:34;;;;;;;3.70;1.43;;;;;;;5.82;100.00;100926.81;2086358;28;20223;-75
2024/03/26 02:50:35;;;;;;;5.73;1.80;;;;;;;6.71;100.00;101064.00;2087727;28;20193;-75
2024/03/26 02:51:35;;;;;;;3.90;1.57;;;;;;;6.70;100.00;101065.97;2087162;28;20195;-74
2024/03/26 02:52:36;;;;;;;3.30;1.50;;;;;;;6.36;100.00;101014.47;2086376;28;20273;-75
2024/03/26 02:53:36;;;;;;;6.27;1.80;;;;;;;6.21;100.00;100996.38;2088752;28;20185;-74
2024/03/26 02:54:37;;;;;;;2.30;1.50;;;;;;;6.17;100.00;100987.34;2086142;28;20296;-75
2024/03/26 02:55:37;;;;;;;2.20;1.30;;;;;;;5.74;100.00;100920.50;2087150;28;20200;-74
2024/03/26 02:56:38;;;;;;;4.30;1.43;;;;;;;5.75;100.00;100924.81;2085917;28;20199;-75
2024/03/26 02:57:38;;;;;;;2.00;1.47;;;;;;;6.12;100.00;100977.53;2086517;28;20204;-75
2024/03/26 02:58:39;;;;;;;2.70;1.53;;;;;;;6.35;100.00;101016.44;2086565;28;20216;-74
2024/03/26 02:59:39;;;;;;;2.97;1.47;;;;;;;6.63;100.00;101054.97;2088080;28;20186;-74
2024/03/26 03:00:40;;;;;;;2.40;1.43;;;;;;;6.34;100.00;101001.09;2085523;28;20446;-74
2024/03/26 03:01:41;;;;;;;6.07;1.70;;;;;;;6.68;100.00;101051.81;2086675;28;20243;-74
2024/03/26 03:02:42;;;;;;;5.50;1.65;;;;;;;6.32;100.00;101008.19;2088020;28;20605;-74
2024/03/26 03:03:42;;;;;;;5.27;1.27;;;;;;;6.63;100.00;101059.66;2087397;28;20218;-75
2024/03/26 03:04:43;;;;;;;2.63;1.53;;;;;;;6.53;100.00;101044.75;2086163;28;20243;-74
2024/03/26 03:05:44;;;;;;;4.47;1.40;;;;;;;6.66;100.00;101073.44;2089787;28;20188;-74
2024/03/26 03:06:44;;;;;;;2.58;1.40;;;;;;;6.56;100.00;101065.97;2086951;28;20196;-75
2024/03/26 03:07:45;;;;;;;3.67;1.77;;;;;;;6.49;100.00;101065.19;2085579;28;20191;-74
2024/03/26 03:08:45;;;;;;;2.37;1.50;;;;;;;6.45;100.00;101064.38;2086462;28;20180;-74
2024/03/26 03:09:46;;;;;;;2.43;1.60;;;;;;;6.08;100.00;101008.94;2086659;28;23799;-75
2024/03/26 03:10:46;;;;;;;3.33;1.53;;;;;;;5.55;100.00;100936.59;2085377;28;20218;-75
2024/03/26 03:11:47;;;;;;;4.13;1.60;;;;;;;6.13;100.00;101064.41;2088180;28;20635;-74
2024/03/26 03:12:47;;;;;;;2.30;1.70;;;;;;;6.18;100.00;101043.94;2086455;28;20698;-74
2024/03/26 03:13:48;;;;;;;4.17;2.03;;;;;;;5.76;100.00;100980.63;2087292;28;20665;-74
2024/03/26 03:14:48;;;;;;;6.60;1.77;;;;;;;6.16;100.00;101058.09;2086182;28;20719;-74
2024/03/26 03:15:49;;;;;;;6.93;2.43;;;;;;;6.18;100.00;101053.00;2089070;28;20275;-74
2024/03/26 03:16:49;;;;;;;4.53;1.77;;;;;;;6.24;100.00;101051.41;2086144;28;20181;-74
2024/03/26 03:17:50;;;;;;;3.10;1.47;;;;;;;6.19;100.00;101040.81;2090627;28;20670;-74
2024/03/26 03:18:50;;;;;;;5.90;2.10;;;;;;;6.29;100.00;101059.28;2085794;28;20674;-75
2024/03/26 03:19:51;;;;;;;2.77;1.40;;;;;;;5.91;100.00;101001.47;2086909;28;20185;-75
2024/03/26 03:20:52;;;;;;;2.93;1.50;;;;;;;6.26;100.00;101071.06;2085491;28;20269;-75
2024/03/26 03:21:52;;;;;;;2.37;1.53;;;;;;;6.25;100.00;101068.75;2086090;28;20201;-74
2024/03/26 03:22:53;;;;;;;2.97;1.77;;;;;;;6.27;100.00;101063.63;2086472;28;20207;-74
2024/03/26 03:23:53;;;;;;;2.87;1.83;;;;;;;6.27;100.00;101066.38;2088381;28;20180;-75
2024/03/26 03:24:54;;;;;;;3.43;1.70;;;;;;;5.04;100.00;100878.41;2085620;28;20196;-75
2024/03/26 03:25:56;;;;;;;2.40;1.60;;;;;;;6.08;100.00;101052.97;2086060;28;20184;-74
2024/03/26 03:26:56;;;;;;;3.05;1.52;;;;;;;6.18;100.00;101063.22;2086434;28;20195;-74
2024/03/26 03:27:57;;;;;;;10.77;2.07;;;;;;;6.26;100.00;101070.31;2086712;28;20179;-75
2024/03/26 03:28:57;;;;;;;6.23;1.90;;;;;;;6.18;100.00;101050.25;2086379;28;20186;-74
2024/03/26 03:29:58;;;;;;;3.67;1.60;;;;;;;5.75;100.00;100988.06;2087918;28;20294;-74
2024/03/26 03:30:58;;;;;;;2.60;1.70;;;;;;;6.37;100.00;101080.16;2085047;28;20259;-74
2024/03/26 03:31:59;;;;;;;3.37;1.60;;;;;;;6.36;100.00;101066.78;2086160;28;20196;-74
2024/03/26 03:33:00;;;;;;;2.53;1.60;;;;;;;6.21;100.00;101040.41;2087850;28;20231;-74
2024/03/26 03:34:00;;;;;;;4.67;2.17;;;;;;;6.13;100.00;101027.81;2092667;28;20195;-74
2024/03/26 03:35:01;;;;;;;3.00;1.47;;;;;;;5.99;100.00;101028.59;2085985;28;20192;-74
2024/03/26 03:36:01;;;;;;;2.67;1.40;;;;;;;6.39;100.00;101069.53;2087948;28;20176;-74
2024/03/26 03:37:02;;;;;;;2.50;1.40;;;;;;;6.21;100.00;101059.69;2086254;28;20623;-74
2024/03/26 03:38:02;;;;;;;3.53;1.43;;;;;;;6.22;100.00;101062.06;2085811;28;20250;-74
2024/03/26 03:39:04;;;;;;;5.07;2.57;;;;;;;6.20;100.00;101052.63;2089772;28;20586;-74
2024/03/26 03:40:06;;;;;;;3.92;1.83;;;;;;;6.40;100.00;101075.81;2086460;28;20555;-74
2024/03/26 03:41:06;;;;;;;4.90;1.98;;;;;;;5.86;100.00;100999.91;2085185;28;20212;-74
2024/03/26 03:42:07;;;;;;;3.43;2.00;;;;;;;5.85;100.00;101006.56;2088407;28;20246;-75
2024/03/26 03:43:07;;;;;;;10.90;2.00;;;;;;;6.31;100.00;101076.19;2085793;28;20220;-75
2024/03/26 03:44:08;;;;;;;3.53;1.50;;;;;;;6.07;100.00;101029.41;2085751;28;20279;-74
2024/03/26 03:45:08;;;;;;;2.57;1.30;;;;;;;6.38;100.00;101098.22;2086266;28;20676;-74
2024/03/26 03:46:10;;;;;;;3.10;1.70;;;;;;;6.21;100.00;101059.69;2091763;28;20179;-75
2024/03/26 03:47:10;;;;;;;2.47;1.30;;;;;;;6.09;100.00;101036.09;2092251;28;20197;-74
2024/03/26 03:48:11;;;;;;;2.60;1.50;;;;;;;5.99;100.00;101020.34;2089351;28;20176;-74
2024/03/26 03:49:11;;;;;;;2.13;1.40;;;;;;;6.39;100.00;101080.53;2086767;28;20179;-74
2024/03/26 03:50:12;;;;;;;2.87;1.77;;;;;;;6.42;100.00;101081.72;2092971;28;20733;-74
2024/03/26 03:51:12;;;;;;;3.13;1.87;;;;;;;6.43;100.00;101089.59;2088942;28;20202;-74
2024/03/26 03:52:13;;;;;;;4.93;1.60;;;;;;;6.21;100.00;101057.69;2086362;28;20184;-75
2024/03/26 03:53:14;;;;;;;4.88;1.90;;;;;;;6.41;100.00;101097.44;2090081;28;20254;-75
2024/03/26 03:54:14;;;;;;;4.73;1.30;;;;;;;6.42;100.00;101084.47;2090410;28;20185;-75
2024/03/26 03:55:15;;;;;;;2.43;1.27;;;;;;;6.44;100.00;101096.66;2086834;28;20275;-74
2024/03/26 03:56:15;;;;;;;3.00;1.67;;;;;;;6.38;100.00;101092.72;2090492;28;20203;-74
2024/03/26 03:57:16;;;;;;;5.23;1.67;;;;;;;6.19;100.00;101071.06;2090051;28;20195;-75
2024/03/26 03:58:16;;;;;;;2.17;1.50;;;;;;;5.92;100.00;101025.84;2084879;28;20203;-74
2024/03/26 03:59:17;;;;;;;1.83;1.23;;;;;;;6.43;100.00;101099.78;2086800;28;20215;-74
2024/03/26 04:00:18;;;;;;;1.80;1.30;;;;;;;5.99;100.00;101047.84;2087325;28;20187;-75
2024/03/26 04:01:19;;;;;;;3.07;1.43;;;;;;;6.42;100.00;101109.25;2084487;28;20275;-75
2024/03/26 04:02:19;;;;;;;3.15;1.77;;;;;;;6.46;100.00;101101.78;2085918;28;20184;-74
2024/03/26 04:03:20;;;;;;;7.63;1.77;;;;;;;6.02;100.00;101038.03;2086507;28;20200;-74
2024/03/26 04:04:20;;;;;;;3.30;1.60;;;;;;;5.81;100.00;101003.06;2086359;28;20583;-74
2024/03/26 04:05:21;;;;;;;3.70;1.73;;;;;;;6.32;100.00;101079.75;2087899;28;20191;-75
2024/03/26 04:06:21;;;;;;;2.33;1.47;;;;;;;6.44;100.00;101091.16;2086851;28;20284;-74
2024/03/26 04:07:22;;;;;;;3.03;1.60;;;;;;;6.56;100.00;101114.75;2085830;28;20196;-74
2024/03/26 04:08:22;;;;;;;8.10;1.80;;;;;;;6.36;100.00;101081.31;2086084;28;20250;-75
2024/03/26 04:09:23;;;;;;;4.60;2.27;;;;;;;6.55;100.00;101116.72;2086019;28;20203;-74
2024/03/26 04:10:23;;;;;;;5.63;1.87;;;;;;;6.49;100.00;101117.50;2092657;28;20176;-74
2024/03/26 04:11:24;;;;;;;3.63;1.87;;;;;;;6.30;100.00;101082.09;2092578;28;20175;-74
2024/03/26 04:12:24;;;;;;;2.97;1.67;;;;;;;5.80;100.00;101011.69;2092329;28;20245;-74
2024/03/26 04:13:25;;;;;;;2.40;1.63;;;;;;;6.39;100.00;101113.56;2087004;28;20573;-74
2024/03/26 04:14:25;;;;;;;3.23;1.80;;;;;;;6.43;100.00;101119.06;2085092;28;20243;-75
2024/03/26 04:15:26;;;;;;;2.43;1.33;;;;;;;6.43;100.00;101125.38;2086025;28;21734;-75
2024/03/26 04:16:26;;;;;;;2.93;1.73;;;;;;;6.29;100.00;101121.78;2085252;28;20948;-75
2024/03/26 04:17:27;;;;;;;2.57;1.53;;;;;;;6.44;100.00;101132.44;2087669;28;20180;-74
2024/03/26 04:18:27;;;;;;;3.67;1.73;;;;;;;6.42;100.00;101125.75;2086057;28;20294;-75
2024/03/26 04:19:28;;;;;;;9.50;1.70;;;;;;;6.16;100.00;101093.88;2087633;28;20212;-75
2024/03/26 04:20:29;;;;;;;6.20;2.00;;;;;;;6.42;100.00;101136.78;2088633;28;20408;-74
2024/03/26 04:21:29;;;;;;;4.60;2.20;;;;;;;6.37;100.00;101143.47;2084743;28;20176;-75
2024/03/26 04:22:30;;;;;;;6.83;2.27;;;;;;;6.35;100.00;101145.81;2085581;28;20193;-75
2024/03/26 04:23:31;;;;;;;6.32;1.67;;;;;;;6.32;100.00;101154.06;2088011;28;20310;-74
2024/03/26 04:24:32;;;;;;;4.63;1.93;;;;;;;6.14;100.00;101126.50;2085374;28;20222;-74
2024/03/26 04:25:32;;;;;;;4.93;2.77;;;;;;;6.34;100.00;101146.97;2088234;28;20203;-74
2024/03/26 04:26:35;;;;;;;3.67;2.03;;;;;;;5.49;100.00;101026.13;2089866;28;20198;-75
2024/03/26 04:27:36;;;;;;;5.32;2.33;;;;;;;5.71;100.00;101074.50;2085868;28;20206;-75
2024/03/26 04:28:36;;;;;;;5.90;2.10;;;;;;;6.30;100.00;101153.66;2089092;28;20198;-74
2024/03/26 04:29:37;;;;;;;6.17;1.87;;;;;;;6.00;100.00;101126.47;2087994;28;20194;-74
2024/03/26 04:30:37;;;;;;;3.47;1.93;;;;;;;6.17;100.00;101144.19;2085463;28;20290;-75
2024/03/26 04:31:38;;;;;;;5.40;1.90;;;;;;;6.13;100.00;101148.91;2086203;28;20263;-75
2024/03/26 04:32:38;;;;;;;3.70;1.87;;;;;;;4.47;100.00;100890.34;2088283;28;20211;-75
2024/03/26 04:33:39;;;;;;;3.37;1.90;;;;;;;5.57;100.00;101071.69;2086027;28;20725;-75
2024/03/26 04:34:39;;;;;;;6.10;2.43;;;;;;;6.23;100.00;101162.69;2084384;28;20184;-75
2024/03/26 04:35:40;;;;;;;3.57;2.20;;;;;;;6.22;100.00;101163.88;2086921;28;20400;-74
2024/03/26 04:36:41;;;;;;;7.90;2.10;;;;;;;6.02;100.00;101123.31;2084759;28;20192;-75
2024/03/26 04:37:41;;;;;;;5.53;2.05;;;;;;;6.28;100.00;101167.81;2085397;28;20188;-75
2024/03/26 04:38:42;;;;;;;4.67;2.20;;;;;;;6.15;100.00;101150.09;2086098;28;20668;-75
2024/03/26 04:39:42;;;;;;;3.57;1.80;;;;;;;5.76;100.00;101112.59;2085219;28;20739;-74
2024/03/26 04:40:44;;;;;;;2.47;1.60;;;;;;;5.91;100.00;101119.75;2077813;28;20243;-75
2024/03/26 04:41:45;;;;;;;1.73;1.30;;;;;;;6.16;100.00;101150.88;2088012;28;20184;-75